地図

経路データ

SID SEASON NUMBER BASIN SUBBASIN NAME ISO_TIME NATURE LAT LON WMO_WIND WMO_PRES WMO_AGENCY TRACK_TYPE DIST2LAND LANDFALL IFLAG USA_AGENCY USA_ATCF_ID USA_LAT USA_LON USA_RECORD USA_STATUS USA_WIND USA_PRES USA_SSHS USA_R34_NE USA_R34_SE USA_R34_SW USA_R34_NW USA_R50_NE USA_R50_SE USA_R50_SW USA_R50_NW USA_R64_NE USA_R64_SE USA_R64_SW USA_R64_NW USA_POCI USA_ROCI USA_RMW USA_EYE TOKYO_LAT TOKYO_LON TOKYO_GRADE TOKYO_WIND TOKYO_PRES TOKYO_R50_DIR TOKYO_R50_LONG TOKYO_R50_SHORT TOKYO_R30_DIR TOKYO_R30_LONG TOKYO_R30_SHORT TOKYO_LAND CMA_LAT CMA_LON CMA_CAT CMA_WIND CMA_PRES HKO_LAT HKO_LON HKO_CAT HKO_WIND HKO_PRES NEWDELHI_LAT NEWDELHI_LON NEWDELHI_GRADE NEWDELHI_WIND NEWDELHI_PRES NEWDELHI_CI NEWDELHI_DP NEWDELHI_POCI REUNION_LAT REUNION_LON REUNION_TYPE REUNION_WIND REUNION_PRES REUNION_TNUM REUNION_CI REUNION_RMW REUNION_R34_NE REUNION_R34_SE REUNION_R34_SW REUNION_R34_NW REUNION_R50_NE REUNION_R50_SE REUNION_R50_SW REUNION_R50_NW REUNION_R64_NE REUNION_R64_SE REUNION_R64_SW REUNION_R64_NW BOM_LAT BOM_LON BOM_TYPE BOM_WIND BOM_PRES BOM_TNUM BOM_CI BOM_RMW BOM_R34_NE BOM_R34_SE BOM_R34_SW BOM_R34_NW BOM_R50_NE BOM_R50_SE BOM_R50_SW BOM_R50_NW BOM_R64_NE BOM_R64_SE BOM_R64_SW BOM_R64_NW BOM_ROCI BOM_POCI BOM_EYE BOM_POS_METHOD BOM_PRES_METHOD NADI_LAT NADI_LON NADI_CAT NADI_WIND NADI_PRES WELLINGTON_LAT WELLINGTON_LON WELLINGTON_WIND WELLINGTON_PRES DS824_LAT DS824_LON DS824_STAGE DS824_WIND DS824_PRES TD9636_LAT TD9636_LON TD9636_STAGE TD9636_WIND TD9636_PRES TD9635_LAT TD9635_LON TD9635_WIND TD9635_PRES TD9635_ROCI NEUMANN_LAT NEUMANN_LON NEUMANN_CLASS NEUMANN_WIND NEUMANN_PRES MLC_LAT MLC_LON MLC_CLASS MLC_WIND MLC_PRES USA_GUST BOM_GUST BOM_GUST_PER REUNION_GUST REUNION_GUST_PER USA_SEAHGT USA_SEARAD_NE USA_SEARAD_SE USA_SEARAD_SW USA_SEARAD_NW STORM_SPEED STORM_DIR
1948314N26294 1948 84 NA NA NOT_NAMED 1948-11-08 18:00:00 TS 25.8000 -66.0000 45 hurdat_atl main 801 781 O_____________ hurdat_atl AL101948 25.8000 -66.0000 TS 45 0 17 284
1948314N26294 1948 84 NA NA NOT_NAMED 1948-11-08 21:00:00 TS 26.0037 -66.9093 main 782 766 P_____________ AL101948 26.0037 -66.9093 TS 47 0 17 284
1948314N26294 1948 84 NA NA NOT_NAMED 1948-11-09 00:00:00 TS 26.2000 -67.8000 50 996 hurdat_atl main 769 730 O_____________ hurdat_atl AL101948 26.2000 -67.8000 TS 50 996 0 16 284
1948314N26294 1948 84 NA NA NOT_NAMED 1948-11-09 03:00:00 TS 26.3919 -68.6580 main 727 700 P_____________ AL101948 26.3919 -68.6580 TS 50 0 16 285
1948314N26294 1948 84 NA NA NOT_NAMED 1948-11-09 06:00:00 TS 26.6000 -69.5000 50 hurdat_atl main 700 681 O_____________ hurdat_atl AL101948 26.6000 -69.5000 TS 50 0 16 286
1948314N26294 1948 84 NA NA NOT_NAMED 1948-11-09 09:00:00 TS 26.8271 -70.3580 main 679 678 P_____________ AL101948 26.8271 -70.3580 TS 52 0 16 288
1948314N26294 1948 84 NA NA NOT_NAMED 1948-11-09 12:00:00 TS 27.1000 -71.2000 55 hurdat_atl main 684 650 O_____________ hurdat_atl AL101948 27.1000 -71.2000 TS 55 0 16 291
1948314N26294 1948 84 NA NA NOT_NAMED 1948-11-09 15:00:00 TS 27.4050 -72.0454 main 650 598 P_____________ AL101948 27.4050 -72.0454 TS 57 0 16 296
1948314N26294 1948 84 NA NA NOT_NAMED 1948-11-09 18:00:00 TS 27.8000 -72.8000 60 994 hurdat_atl main 598 579 O_____________ hurdat_atl AL101948 27.8000 -72.8000 TS 60 994 0 15 306
1948314N26294 1948 84 NA NA NOT_NAMED 1948-11-09 21:00:00 TS 28.3122 -73.4324 main 579 571 P_____________ AL101948 28.3122 -73.4324 TS 62 992 0 15 319
1948314N26294 1948 84 NA NA NOT_NAMED 1948-11-10 00:00:00 TS 28.9000 -73.9000 65 990 hurdat_atl main 587 587 O_____________ hurdat_atl AL101948 28.9000 -73.9000 HU 65 990 1 14 330
1948314N26294 1948 84 NA NA NOT_NAMED 1948-11-10 03:00:00 TS 29.4846 -74.2034 main 607 542 P_____________ AL101948 29.4846 -74.2034 HU 65 1 13 340
1948314N26294 1948 84 NA NA NOT_NAMED 1948-11-10 06:00:00 TS 30.1000 -74.4000 65 hurdat_atl main 542 487 O_____________ hurdat_atl AL101948 30.1000 -74.4000 HU 65 1 12 343
1948314N26294 1948 84 NA NA NOT_NAMED 1948-11-10 09:00:00 TS 30.6750 -74.6228 main 478 400 P_____________ AL101948 30.6750 -74.6228 HU 65 1 13 345
1948314N26294 1948 84 NA NA NOT_NAMED 1948-11-10 12:00:00 TS 31.4000 -74.8000 65 hurdat_atl main 400 291 O_____________ hurdat_atl AL101948 31.4000 -74.8000 HU 65 1 18 349
1948314N26294 1948 84 NA NA NOT_NAMED 1948-11-10 15:00:00 TS 32.4397 -75.0092 main 291 192 P_____________ AL101948 32.4397 -75.0092 HU 62 0 22 356
1948314N26294 1948 84 NA NA NOT_NAMED 1948-11-10 18:00:00 TS 33.6000 -75.0000 60 hurdat_atl main 184 141 O_____________ hurdat_atl AL101948 33.6000 -75.0000 TS 60 0 23 9
1948314N26294 1948 84 NA NA NOT_NAMED 1948-11-10 21:00:00 TS 34.7326 -74.5732 main 141 121 P_____________ AL101948 34.7326 -74.5732 TS 57 0 23 23
1948314N26294 1948 84 NA NA NOT_NAMED 1948-11-11 00:00:00 TS 35.7000 -73.9000 55 994 hurdat_atl main 144 144 O_____________ hurdat_atl AL101948 35.7000 -73.9000 TS 55 994 0 20 35
1948314N26294 1948 84 NA NA NOT_NAMED 1948-11-11 03:00:00 TS 36.3480 -73.1965 main 213 213 P_____________ AL101948 36.3480 -73.1965 TS 47 0 16 46
1948314N26294 1948 84 NA NA NOT_NAMED 1948-11-11 06:00:00 ET 36.8000 -72.5000 40 hurdat_atl main 283 O_____________ hurdat_atl AL101948 36.8000 -72.5000 EX 40 -4 14 51

IBTrACS Databaseについて

本データベースは、米国NOAAが公開する1842年以降の世界の熱帯低気圧のベストトラックデータアーカイブInternational Best Track Archive for Climate Stewardship (IBTrACS)を、ウェブで閲覧しやすい形式に変換したものです。

最終更新日:2021-12-03